createdAt,value
2023-03-06T00:00:47.554Z,96845.66
2023-03-06T00:03:18.201Z,96849.53
2023-03-06T00:05:49.177Z,96856.84
2023-03-06T00:08:19.388Z,96854.38
2023-03-06T00:10:51.791Z,96849.81
2023-03-06T00:13:22.422Z,96858.53
2023-03-06T00:15:53.068Z,96853.28
2023-03-06T00:18:23.502Z,96842.56
2023-03-06T00:20:54.212Z,96842.16
2023-03-06T00:23:24.690Z,96842.16
2023-03-06T00:25:56.437Z,96843.31
2023-03-06T00:28:27.848Z,96839.06
2023-03-06T00:30:58.257Z,96837.19
2023-03-06T00:33:28.978Z,96836.75
2023-03-06T00:35:59.410Z,96836.75
2023-03-06T00:38:33.925Z,96836.31
2023-03-06T00:41:12.870Z,96836.78
2023-03-06T00:43:43.028Z,96828.09
2023-03-06T00:46:14.089Z,96827.66
2023-03-06T00:48:44.647Z,96832.75
2023-03-06T00:51:15.192Z,96832.75
2023-03-06T00:53:46.170Z,96830.00
2023-03-06T00:56:19.967Z,96832.00
2023-03-06T00:58:53.217Z,96831.97
2023-03-06T01:01:24.774Z,96828.47
2023-03-06T01:03:54.933Z,96828.13
2023-03-06T01:06:26.179Z,96827.75
2023-03-06T01:08:57.131Z,96815.84
2023-03-06T01:11:29.609Z,96801.50
2023-03-06T01:14:00.028Z,96809.25
2023-03-06T01:16:31.106Z,96806.34
2023-03-06T01:19:01.683Z,96797.28
2023-03-06T01:21:32.689Z,96790.81
2023-03-06T01:24:03.484Z,96794.63
2023-03-06T01:26:35.472Z,96798.47
2023-03-06T01:29:06.977Z,96792.31
2023-03-06T01:31:37.892Z,96793.25
2023-03-06T01:34:08.291Z,96788.56
2023-03-06T01:36:39.448Z,96788.88
2023-03-06T01:39:09.560Z,96786.19
2023-03-06T01:41:42.656Z,96780.41
2023-03-06T01:44:15.597Z,96785.38
2023-03-06T01:46:46.692Z,96777.75
2023-03-06T01:49:24.163Z,96779.50
2023-03-06T01:51:56.769Z,96776.88
2023-03-06T01:54:30.460Z,96767.75
2023-03-06T01:57:06.831Z,96763.25
2023-03-06T01:59:38.269Z,96762.84
2023-03-06T02:02:09.790Z,96751.63
2023-03-06T02:04:43.153Z,96756.97
2023-03-06T02:07:14.323Z,96747.97
2023-03-06T02:09:44.626Z,96745.50
2023-03-06T02:12:20.869Z,96738.59
2023-03-06T02:14:52.713Z,96737.97
2023-03-06T02:17:24.775Z,96745.41
2023-03-06T02:20:00.320Z,96734.78
2023-03-06T02:22:36.198Z,96731.00
2023-03-06T02:25:12.406Z,96726.06
2023-03-06T02:27:45.052Z,96724.16
2023-03-06T02:30:18.196Z,96723.16
2023-03-06T02:32:50.198Z,96713.53
2023-03-06T02:35:22.630Z,96719.44
2023-03-06T02:37:53.104Z,96714.06
2023-03-06T02:40:26.413Z,96713.34
2023-03-06T02:43:00.772Z,96713.59
2023-03-06T02:45:38.683Z,96717.09
2023-03-06T02:48:10.580Z,96719.19
2023-03-06T02:50:41.063Z,96723.25
2023-03-06T02:53:15.128Z,96721.69
2023-03-06T02:55:46.703Z,96714.38
2023-03-06T02:58:19.937Z,96716.22
2023-03-06T03:00:50.507Z,96715.50
2023-03-06T03:03:21.490Z,96718.00
2023-03-06T03:05:51.003Z,96720.88
2023-03-06T03:08:21.478Z,96707.91
2023-03-06T03:10:52.218Z,96714.81
2023-03-06T03:13:23.516Z,96713.53
2023-03-06T03:16:01.270Z,96707.88
2023-03-06T03:18:32.996Z,96714.97
2023-03-06T03:21:03.930Z,96718.81
2023-03-06T03:23:33.872Z,96709.94
2023-03-06T03:26:09.507Z,96701.19
2023-03-06T03:28:42.362Z,96710.28
2023-03-06T03:31:14.933Z,96698.25
2023-03-06T03:33:45.533Z,96699.63
2023-03-06T03:36:15.464Z,96699.63
2023-03-06T03:38:46.013Z,96692.66
2023-03-06T03:41:16.500Z,96700.81
2023-03-06T03:43:48.974Z,96688.84
2023-03-06T03:46:19.109Z,96685.84
2023-03-06T03:48:49.793Z,96681.34
2023-03-06T03:51:21.075Z,96679.28
2023-03-06T03:53:51.855Z,96686.28
2023-03-06T03:56:22.285Z,96695.88
2023-03-06T03:58:55.890Z,96680.84
2023-03-06T04:01:26.189Z,96685.81
2023-03-06T04:03:57.299Z,96676.56
2023-03-06T04:06:27.986Z,96675.72
2023-03-06T04:08:59.185Z,96672.47
2023-03-06T04:11:30.056Z,96672.44
2023-03-06T04:14:03.612Z,96671.69
2023-03-06T04:16:34.413Z,96668.06
2023-03-06T04:19:05.189Z,96666.72
2023-03-06T04:21:36.493Z,96663.47
2023-03-06T04:24:07.829Z,96667.50
2023-03-06T04:26:38.386Z,96664.09
2023-03-06T04:29:10.067Z,96660.09
2023-03-06T04:31:40.271Z,96648.50
2023-03-06T04:34:12.174Z,96656.22
2023-03-06T04:36:45.349Z,96656.28
2023-03-06T04:39:16.565Z,96657.84
2023-03-06T04:41:47.607Z,96654.94
2023-03-06T04:44:20.114Z,96652.00
2023-03-06T04:46:50.414Z,96656.34
2023-03-06T04:49:21.295Z,96654.00
2023-03-06T04:51:51.380Z,96647.19
2023-03-06T04:54:21.953Z,96648.16
2023-03-06T04:56:53.693Z,96651.53
2023-03-06T04:59:26.072Z,96644.38
2023-03-06T05:01:57.068Z,96643.47
2023-03-06T05:04:27.398Z,96650.19
2023-03-06T05:06:58.478Z,96639.34
2023-03-06T05:09:29.463Z,96645.69
2023-03-06T05:12:00.271Z,96640.13
2023-03-06T05:14:34.106Z,96634.97
2023-03-06T05:17:04.016Z,96634.94
2023-03-06T05:19:34.765Z,96626.34
2023-03-06T05:22:06.170Z,96631.78
2023-03-06T05:24:36.707Z,96624.25
2023-03-06T05:27:07.371Z,96627.06
2023-03-06T05:29:39.708Z,96633.56
2023-03-06T05:32:11.578Z,96634.59
2023-03-06T05:34:42.996Z,96626.03
2023-03-06T05:37:13.992Z,96625.34
2023-03-06T05:39:45.792Z,96622.66
2023-03-06T05:42:20.318Z,96622.97
2023-03-06T05:44:52.730Z,96620.41
2023-03-06T05:47:22.541Z,96621.19
2023-03-06T05:49:53.731Z,96620.59
2023-03-06T05:52:23.528Z,96623.19
2023-03-06T05:54:55.691Z,96613.63
2023-03-06T05:57:26.440Z,96612.44
2023-03-06T05:59:58.940Z,96606.50
2023-03-06T06:02:29.642Z,96610.50
2023-03-06T06:04:59.517Z,96613.22
2023-03-06T06:07:29.882Z,96617.84
2023-03-06T06:10:02.338Z,96615.22
2023-03-06T06:12:33.896Z,96620.25
2023-03-06T06:15:07.632Z,96612.25
2023-03-06T06:17:37.582Z,96608.66
2023-03-06T06:20:09.395Z,96610.34
2023-03-06T06:22:40.382Z,96607.31
2023-03-06T06:25:11.343Z,96607.38
2023-03-06T06:27:41.994Z,96610.28
2023-03-06T06:30:17.061Z,96619.88
2023-03-06T06:32:46.578Z,96616.59
2023-03-06T06:35:16.948Z,96610.50
2023-03-06T06:37:47.442Z,96612.06
2023-03-06T06:40:18.584Z,96623.28
2023-03-06T06:42:49.042Z,96615.59
2023-03-06T06:45:21.163Z,96626.25
2023-03-06T06:47:53.342Z,96624.09
2023-03-06T06:50:23.792Z,96621.25
2023-03-06T06:52:53.922Z,96625.19
2023-03-06T06:55:24.452Z,96623.00
2023-03-06T06:57:54.724Z,96624.78
2023-03-06T07:00:27.224Z,96621.16
2023-03-06T07:02:57.726Z,96618.81
2023-03-06T07:05:28.307Z,96618.34
2023-03-06T07:07:59.344Z,96623.22
2023-03-06T07:10:29.932Z,96613.28
2023-03-06T07:13:00.973Z,96614.88
2023-03-06T07:15:35.567Z,96614.66
2023-03-06T07:18:06.377Z,96604.97
2023-03-06T07:20:37.143Z,96605.75
2023-03-06T07:23:09.298Z,96599.53
2023-03-06T07:25:40.717Z,96611.84
2023-03-06T07:28:12.685Z,96621.56
2023-03-06T07:30:45.287Z,96616.88
2023-03-06T07:33:16.613Z,96616.59
2023-03-06T07:35:47.334Z,96612.97
2023-03-06T07:38:18.084Z,96618.53
2023-03-06T07:40:53.586Z,96620.59
2023-03-06T07:43:23.767Z,96621.94
2023-03-06T07:46:00.854Z,96623.91
2023-03-06T07:48:31.187Z,96614.34
2023-03-06T07:51:03.617Z,96612.19
2023-03-06T07:53:34.600Z,96602.88
2023-03-06T07:56:09.398Z,96607.75
2023-03-06T07:58:40.728Z,96603.16
2023-03-06T08:01:13.928Z,96603.44
2023-03-06T08:03:44.735Z,96609.63
2023-03-06T08:06:16.739Z,96595.72
2023-03-06T08:08:49.035Z,96602.03
2023-03-06T08:11:21.725Z,96601.25
2023-03-06T08:13:53.458Z,96590.19
2023-03-06T08:16:26.789Z,96589.13
2023-03-06T08:18:57.908Z,96581.56
2023-03-06T08:21:29.470Z,96578.53
2023-03-06T08:24:00.494Z,96581.41
2023-03-06T08:26:34.079Z,96594.03
2023-03-06T08:29:04.629Z,96582.31
2023-03-06T08:31:38.228Z,96592.88
2023-03-06T08:34:09.873Z,96583.63
2023-03-06T08:36:40.878Z,96579.31
2023-03-06T08:39:14.860Z,96574.94
2023-03-06T08:41:45.501Z,96582.56
2023-03-06T08:44:15.793Z,96582.13
2023-03-06T08:46:47.626Z,96572.69
2023-03-06T08:49:17.622Z,96567.78
2023-03-06T08:51:48.452Z,96574.44
2023-03-06T08:54:19.274Z,96570.75
2023-03-06T08:56:49.456Z,96566.72
2023-03-06T08:59:19.630Z,96565.25
2023-03-06T09:01:56.378Z,96566.88
2023-03-06T09:04:27.276Z,96564.53
2023-03-06T09:06:58.570Z,96564.47
2023-03-06T09:09:29.820Z,96559.28
2023-03-06T09:12:00.613Z,96561.34
2023-03-06T09:14:31.253Z,96565.78
2023-03-06T09:17:03.254Z,96564.09
2023-03-06T09:19:34.049Z,96552.22
2023-03-06T09:22:04.404Z,96557.16
2023-03-06T09:24:34.935Z,96555.88
2023-03-06T09:27:06.543Z,96562.13
2023-03-06T09:29:36.820Z,96555.66
2023-03-06T09:32:12.026Z,96550.25
2023-03-06T09:34:43.347Z,96545.91
2023-03-06T09:37:13.971Z,96543.50
2023-03-06T09:39:45.600Z,96539.56
2023-03-06T09:42:19.473Z,96540.31
2023-03-06T09:44:53.175Z,96541.25
2023-03-06T09:47:37.644Z,96540.09
2023-03-06T09:50:31.093Z,96536.88
2023-03-06T09:53:33.603Z,96530.84
2023-03-06T09:56:05.666Z,96531.97
2023-03-06T09:58:43.165Z,96534.66
2023-03-06T10:01:20.136Z,96535.44
2023-03-06T10:03:56.501Z,96531.03
2023-03-06T10:06:30.216Z,96535.97
2023-03-06T10:09:05.341Z,96526.66
2023-03-06T10:11:37.827Z,96525.78
2023-03-06T10:14:19.772Z,96520.94
2023-03-06T10:16:49.955Z,96515.59
2023-03-06T10:19:23.686Z,96513.06
2023-03-06T10:21:59.552Z,96508.66
2023-03-06T10:24:47.743Z,96508.38
2023-03-06T10:27:34.010Z,96508.09
2023-03-06T10:30:13.100Z,96506.16
2023-03-06T10:32:52.031Z,96512.91
2023-03-06T10:35:30.524Z,96497.13
2023-03-06T10:38:04.125Z,96500.53
2023-03-06T10:40:42.586Z,96498.25
2023-03-06T10:43:13.985Z,96492.31
2023-03-06T10:45:50.715Z,96493.22
2023-03-06T10:48:24.090Z,96491.38
2023-03-06T10:51:04.734Z,96484.47
2023-03-06T10:53:52.039Z,96481.13
2023-03-06T10:56:33.941Z,96475.63
2023-03-06T10:59:13.210Z,96474.38
2023-03-06T11:01:45.501Z,96463.78
2023-03-06T11:04:29.733Z,96464.06
2023-03-06T11:07:17.089Z,96462.50
2023-03-06T11:10:02.174Z,96459.13
2023-03-06T11:12:34.519Z,96456.78
2023-03-06T11:15:21.215Z,96452.44
2023-03-06T11:17:58.687Z,96446.72
2023-03-06T11:20:48.484Z,96448.84
2023-03-06T11:23:27.013Z,96449.00
2023-03-06T11:26:00.048Z,96442.97
2023-03-06T11:28:32.416Z,96445.75
2023-03-06T11:31:06.491Z,96444.03
2023-03-06T11:33:41.375Z,96433.44
2023-03-06T11:36:16.696Z,96427.34
2023-03-06T11:38:52.314Z,96418.78
2023-03-06T11:41:28.591Z,96418.34
2023-03-06T11:44:06.964Z,96418.03
2023-03-06T11:46:41.679Z,96406.78
2023-03-06T11:49:18.862Z,96406.63
2023-03-06T11:51:53.798Z,96400.41
2023-03-06T11:54:26.373Z,96402.31
2023-03-06T11:57:00.812Z,96402.84
2023-03-06T11:59:52.783Z,96394.31
2023-03-06T12:02:35.056Z,96395.63
2023-03-06T12:05:23.004Z,96390.53
2023-03-06T12:07:59.274Z,96388.31
2023-03-06T12:10:36.635Z,96388.53
2023-03-06T12:13:28.099Z,96388.69
2023-03-06T12:16:12.000Z,96387.19
2023-03-06T12:18:53.444Z,96383.47
2023-03-06T12:21:31.054Z,96382.47
2023-03-06T12:24:23.752Z,96385.06
2023-03-06T12:27:09.858Z,96378.88
2023-03-06T12:30:04.178Z,96373.88
2023-03-06T12:32:45.800Z,96373.47
2023-03-06T12:35:50.433Z,96377.44
2023-03-06T12:38:41.235Z,96367.25
2023-03-06T12:41:20.298Z,96368.94
2023-03-06T12:44:19.047Z,96364.28
2023-03-06T12:46:51.883Z,96374.59
2023-03-06T12:49:32.476Z,96367.50
2023-03-06T12:52:03.730Z,96374.91
2023-03-06T12:54:40.843Z,96372.72
2023-03-06T12:57:12.911Z,96369.41
2023-03-06T12:59:48.291Z,96370.44
2023-03-06T13:02:47.960Z,96366.16
2023-03-06T13:05:37.632Z,96363.94
2023-03-06T13:08:37.613Z,96361.06
2023-03-06T13:11:36.389Z,96367.16
2023-03-06T13:14:26.663Z,96363.44
2023-03-06T13:17:29.172Z,96360.22
2023-03-06T13:20:35.512Z,96358.88
2023-03-06T13:23:44.353Z,96360.72
2023-03-06T13:26:51.664Z,96356.53
2023-03-06T13:30:02.221Z,96352.53
2023-03-06T13:32:36.579Z,96349.50
2023-03-06T13:35:45.341Z,96351.97
2023-03-06T13:38:33.693Z,96356.19
2023-03-06T13:41:35.617Z,96355.84
2023-03-06T13:44:41.731Z,96349.44
2023-03-06T13:47:25.947Z,96350.59
2023-03-06T13:49:57.817Z,96353.97
2023-03-06T13:52:37.545Z,96346.22
2023-03-06T13:55:16.988Z,96339.13
2023-03-06T13:57:56.198Z,96339.22
2023-03-06T14:00:48.641Z,96333.88
2023-03-06T14:04:03.860Z,96327.09
2023-03-06T14:07:06.646Z,96336.28
2023-03-06T14:09:40.160Z,96336.19
2023-03-06T14:12:17.110Z,96334.25
2023-03-06T14:14:53.094Z,96330.22
2023-03-06T14:17:28.824Z,96327.56
2023-03-06T14:20:02.562Z,96332.97
2023-03-06T14:22:34.892Z,96337.56
2023-03-06T14:25:09.708Z,96333.22
2023-03-06T14:27:43.997Z,96331.38
2023-03-06T14:30:17.623Z,96330.72
2023-03-06T14:32:47.630Z,96336.09
2023-03-06T14:35:30.125Z,96335.09
2023-03-06T14:38:04.801Z,96337.25
2023-03-06T14:40:37.895Z,96326.97
2023-03-06T14:43:27.089Z,96329.00
2023-03-06T14:45:59.811Z,96323.16
2023-03-06T14:48:41.658Z,96322.09
2023-03-06T14:51:19.112Z,96322.34
2023-03-06T14:53:53.003Z,96321.63
2023-03-06T14:56:25.076Z,96326.03
2023-03-06T14:58:57.999Z,96319.63
2023-03-06T15:01:32.944Z,96327.88
2023-03-06T15:04:04.601Z,96331.22
2023-03-06T15:06:38.201Z,96329.16
2023-03-06T15:09:16.772Z,96328.81
2023-03-06T15:11:58.182Z,96327.31
2023-03-06T15:14:37.871Z,96328.09
2023-03-06T15:17:33.399Z,96329.00
2023-03-06T15:20:04.195Z,96322.72
2023-03-06T15:22:38.259Z,96331.47
2023-03-06T15:25:26.976Z,96325.94
2023-03-06T15:27:58.467Z,96331.13
2023-03-06T15:30:32.881Z,96324.09
2023-03-06T15:33:25.538Z,96323.66
2023-03-06T15:35:57.620Z,96317.09
2023-03-06T15:38:41.173Z,96327.75
2023-03-06T15:41:34.943Z,96327.25
2023-03-06T15:44:11.411Z,96332.22
2023-03-06T15:46:41.956Z,96336.09
2023-03-06T15:49:19.704Z,96326.38
2023-03-06T15:51:49.938Z,96339.22
2023-03-06T15:54:20.339Z,96334.59
2023-03-06T15:56:53.800Z,96343.19
2023-03-06T15:59:26.771Z,96336.75
2023-03-06T16:01:57.460Z,96339.78
2023-03-06T16:04:28.106Z,96338.22
2023-03-06T16:07:03.860Z,96341.09
2023-03-06T16:09:34.490Z,96342.63
2023-03-06T16:12:07.647Z,96345.31
2023-03-06T16:14:38.256Z,96343.91
2023-03-06T16:17:09.287Z,96341.53
2023-03-06T16:19:39.660Z,96338.53
2023-03-06T16:22:10.184Z,96336.25
2023-03-06T16:24:41.323Z,96333.44
2023-03-06T16:27:20.848Z,96337.09
2023-03-06T16:29:51.654Z,96340.06
2023-03-06T16:32:21.709Z,96344.47
2023-03-06T16:34:53.390Z,96345.72
2023-03-06T16:37:24.663Z,96345.28
2023-03-06T16:39:54.753Z,96337.28
2023-03-06T16:42:26.851Z,96342.16
2023-03-06T16:44:57.551Z,96332.22
2023-03-06T16:47:28.405Z,96328.16
2023-03-06T16:50:02.340Z,96323.63
2023-03-06T16:52:33.582Z,96338.22
2023-03-06T16:55:04.535Z,96338.69
2023-03-06T16:57:36.218Z,96341.09
2023-03-06T17:00:08.636Z,96342.53
2023-03-06T17:02:39.086Z,96346.97
2023-03-06T17:05:11.958Z,96343.91
2023-03-06T17:07:42.615Z,96345.69
2023-03-06T17:10:16.266Z,96356.44
2023-03-06T17:12:48.001Z,96359.34
2023-03-06T17:15:18.793Z,96360.84
2023-03-06T17:17:49.706Z,96364.56
2023-03-06T17:20:21.637Z,96365.91
2023-03-06T17:22:51.924Z,96363.94
2023-03-06T17:25:22.736Z,96367.56
2023-03-06T17:27:54.853Z,96368.53
2023-03-06T17:30:25.883Z,96367.03
2023-03-06T17:32:58.194Z,96372.75
2023-03-06T17:35:28.034Z,96366.19
2023-03-06T17:37:59.605Z,96372.47
2023-03-06T17:40:30.622Z,96372.47
2023-03-06T17:43:02.088Z,96372.78
2023-03-06T17:45:34.577Z,96387.97
2023-03-06T17:48:05.562Z,96382.38
2023-03-06T17:50:35.951Z,96385.63
2023-03-06T17:53:06.087Z,96382.84
2023-03-06T17:55:35.929Z,96386.72
2023-03-06T17:58:12.278Z,96387.44
2023-03-06T18:00:43.407Z,96389.00
2023-03-06T18:03:13.541Z,96391.06
2023-03-06T18:05:44.979Z,96390.03
2023-03-06T18:08:15.360Z,96390.38
2023-03-06T18:10:46.548Z,96390.19
2023-03-06T18:13:18.981Z,96402.31
2023-03-06T18:15:49.390Z,96394.84
2023-03-06T18:18:20.809Z,96397.69
2023-03-06T18:20:51.499Z,96397.75
2023-03-06T18:23:22.883Z,96403.84
2023-03-06T18:25:54.458Z,96404.81
2023-03-06T18:28:26.649Z,96395.00
2023-03-06T18:30:57.069Z,96394.66
2023-03-06T18:33:27.764Z,96388.00
2023-03-06T18:35:58.419Z,96391.31
2023-03-06T18:38:28.765Z,96386.88
2023-03-06T18:41:00.898Z,96381.56
2023-03-06T18:43:33.225Z,96389.72
2023-03-06T18:46:03.921Z,96384.25
2023-03-06T18:48:34.570Z,96387.38
2023-03-06T18:51:09.412Z,96401.28
2023-03-06T18:53:40.888Z,96393.50
2023-03-06T18:56:16.391Z,96395.28
2023-03-06T18:58:55.301Z,96399.72
2023-03-06T19:01:26.141Z,96407.03
2023-03-06T19:03:57.506Z,96415.13
2023-03-06T19:06:28.073Z,96414.22
2023-03-06T19:09:02.477Z,96420.22
2023-03-06T19:11:33.937Z,96424.84
2023-03-06T19:14:05.437Z,96423.53
2023-03-06T19:16:37.259Z,96426.44
2023-03-06T19:19:08.332Z,96428.69
2023-03-06T19:21:38.681Z,96423.97
2023-03-06T19:24:14.387Z,96426.34
2023-03-06T19:26:44.809Z,96431.50
2023-03-06T19:29:16.532Z,96437.84
2023-03-06T19:31:47.381Z,96438.34
2023-03-06T19:34:17.218Z,96437.03
2023-03-06T19:36:48.344Z,96431.56
2023-03-06T19:39:20.666Z,96422.97
2023-03-06T19:41:51.640Z,96424.25
2023-03-06T19:44:23.554Z,96431.34
2023-03-06T19:46:54.044Z,96432.81
2023-03-06T19:49:24.294Z,96437.78
2023-03-06T19:51:54.493Z,96435.44
2023-03-06T19:54:25.986Z,96439.28
2023-03-06T19:56:56.267Z,96446.50
2023-03-06T19:59:28.662Z,96435.78
2023-03-06T20:01:58.897Z,96435.03
2023-03-06T20:04:32.774Z,96439.81
2023-03-06T20:07:05.723Z,96438.88
2023-03-06T20:09:36.466Z,96438.78
2023-03-06T20:12:08.279Z,96445.22
2023-03-06T20:14:41.379Z,96444.41
2023-03-06T20:17:11.825Z,96446.69
2023-03-06T20:19:43.146Z,96452.31
2023-03-06T20:22:14.312Z,96451.44
2023-03-06T20:24:44.533Z,96457.66
2023-03-06T20:27:14.852Z,96457.78
2023-03-06T20:29:47.346Z,96465.69
2023-03-06T20:32:17.737Z,96466.88
2023-03-06T20:34:50.290Z,96465.63
2023-03-06T20:37:20.704Z,96471.00
2023-03-06T20:39:52.393Z,96469.97
2023-03-06T20:42:22.135Z,96471.13
2023-03-06T20:44:53.430Z,96468.38
2023-03-06T20:47:24.550Z,96479.66
2023-03-06T20:49:56.947Z,96470.22
2023-03-06T20:52:27.124Z,96478.91
2023-03-06T20:54:57.090Z,96481.75
2023-03-06T20:57:27.517Z,96478.00
2023-03-06T20:59:59.806Z,96466.78
2023-03-06T21:02:30.510Z,96474.97
2023-03-06T21:05:01.538Z,96476.53
2023-03-06T21:07:31.642Z,96477.84
2023-03-06T21:10:02.405Z,96471.00
2023-03-06T21:12:32.886Z,96473.25
2023-03-06T21:15:05.090Z,96477.97
2023-03-06T21:17:35.636Z,96479.44
2023-03-06T21:20:07.514Z,96470.47
2023-03-06T21:22:38.238Z,96474.72
2023-03-06T21:25:09.368Z,96479.03
2023-03-06T21:27:39.535Z,96474.38
2023-03-06T21:30:14.110Z,96475.09
2023-03-06T21:32:45.226Z,96471.63
2023-03-06T21:35:15.956Z,96479.84
2023-03-06T21:37:47.344Z,96470.94
2023-03-06T21:40:17.204Z,96469.97
2023-03-06T21:42:47.327Z,96466.59
2023-03-06T21:45:18.451Z,96469.69
2023-03-06T21:47:50.835Z,96478.59
2023-03-06T21:50:22.481Z,96479.78
2023-03-06T21:52:53.593Z,96474.94
2023-03-06T21:55:24.945Z,96468.47
2023-03-06T21:57:56.021Z,96476.69
2023-03-06T22:00:28.591Z,96478.66
2023-03-06T22:03:00.385Z,96473.84
2023-03-06T22:05:31.923Z,96467.84
2023-03-06T22:08:02.474Z,96472.53
2023-03-06T22:10:32.581Z,96469.34
2023-03-06T22:13:02.890Z,96468.31
2023-03-06T22:15:34.841Z,96473.84
2023-03-06T22:18:05.757Z,96477.28
2023-03-06T22:20:36.180Z,96471.00
2023-03-06T22:23:06.746Z,96468.53
2023-03-06T22:25:38.399Z,96474.63
2023-03-06T22:28:08.515Z,96472.41
2023-03-06T22:30:40.224Z,96471.34
2023-03-06T22:33:10.967Z,96473.78
2023-03-06T22:35:41.346Z,96475.38
2023-03-06T22:38:12.015Z,96480.34
2023-03-06T22:40:41.743Z,96479.00
2023-03-06T22:43:11.861Z,96479.59
2023-03-06T22:45:43.891Z,96465.53
2023-03-06T22:48:14.189Z,96453.88
2023-03-06T22:50:44.914Z,96460.53
2023-03-06T22:53:15.314Z,96468.88
2023-03-06T22:55:45.825Z,96469.25
2023-03-06T22:58:15.957Z,96467.25
2023-03-06T23:00:48.229Z,96462.84
2023-03-06T23:03:18.665Z,96458.41
2023-03-06T23:05:49.278Z,96462.66
2023-03-06T23:08:19.792Z,96463.09
2023-03-06T23:10:50.397Z,96474.41
2023-03-06T23:13:20.444Z,96481.50
2023-03-06T23:15:52.545Z,96487.97
2023-03-06T23:18:23.012Z,96488.41
2023-03-06T23:20:53.379Z,96500.25
2023-03-06T23:23:24.977Z,96504.94
2023-03-06T23:26:00.487Z,96499.34
2023-03-06T23:28:30.900Z,96505.44
2023-03-06T23:31:03.220Z,96502.50
2023-03-06T23:33:33.605Z,96501.59
2023-03-06T23:36:06.470Z,96504.13
2023-03-06T23:38:37.321Z,96486.81
2023-03-06T23:41:09.750Z,96489.28
2023-03-06T23:43:40.106Z,96499.78
2023-03-06T23:46:12.112Z,96507.22
2023-03-06T23:48:43.595Z,96505.56
2023-03-06T23:51:17.497Z,96502.50
2023-03-06T23:53:49.174Z,96491.94
2023-03-06T23:56:20.541Z,96499.13
2023-03-06T23:58:51.522Z,96499.44
